Time;durP1;ratioP1;P1;durP2;ratioP2;P2;SDS_P1;SDS_P2;PMS_P1;PMS_P2;Temp;Humidity;BMP_temperature;BMP_pressure;BME280_temperature;BME280_humidity;BME280_pressure;Samples;Min_cycle;Max_cycle;Signal;HPM_P1;HPM_P2
2023/04/20 05:52:07;;;;;;;4.88;3.22;;;;;;;;;;10504217;28;20396;-81
2023/04/20 05:57:08;;;;;;;;;;;;;;;;;;10502201;28;20398;-81
2023/04/20 06:02:36;;;;;;;5.53;3.65;;;;;;;;;;10516291;22;19925;-82
2023/04/20 06:07:38;;;;;;;6.82;3.10;;;;;;;;;;10421294;28;20034;-82
2023/04/20 06:12:39;;;;;;;7.90;3.58;;;;;;;;;;10420564;28;20042;-82
2023/04/20 06:17:42;;;;;;;3.60;2.60;;;;;;;;;;10418387;28;20430;-82
2023/04/20 06:22:52;;;;;;;5.60;2.80;;;;;;;;;;10426862;28;20411;-82
2023/04/20 06:27:55;;;;;;;6.20;3.40;;;;;;;;;;10419716;28;20399;-82
2023/04/20 06:32:56;;;;;;;2.95;2.33;;;;;;;;;;10421530;28;20068;-82
2023/04/20 06:37:57;;;;;;;4.60;2.60;;;;;;;;;;10418519;28;20053;-83
2023/04/20 06:42:58;;;;;;;5.03;3.85;;;;;;;;;;10419552;28;20022;-83
2023/04/20 06:48:00;;;;;;;4.32;3.10;;;;;;;;;;10418389;28;20040;-82
2023/04/20 06:53:01;;;;;;;;;;;;;;;;;;10418258;28;20125;-81
2023/04/20 06:58:02;;;;;;;4.05;2.40;;;;;;;;;;10418882;28;19959;-82
2023/04/20 07:03:02;;;;;;;;;;;;;;;;;;10394953;28;20053;-82
2023/04/20 07:08:04;;;;;;;5.22;2.92;;;;;;;;;;10395687;28;19905;-79
2023/04/20 07:13:05;;;;;;;3.53;2.85;;;;;;;;;;10397969;28;20026;-82
2023/04/20 07:18:06;;;;;;;;;;;;;;;;;;10406394;28;20065;-84
2023/04/20 07:23:07;;;;;;;3.50;2.65;;;;;;;;;;10422673;28;19929;-82
2023/04/20 07:28:08;;;;;;;;;;;;;;;;;;10421896;28;20033;-83
2023/04/20 07:33:09;;;;;;;3.85;2.45;;;;;;;;;;10417693;28;19916;-82
2023/04/20 07:38:11;;;;;;;4.82;2.55;;;;;;;;;;10408778;28;20030;-80
2023/04/20 07:43:13;;;;;;;;;;;;;;;;;;10412837;28;20026;-82
2023/04/20 07:48:14;;;;;;;5.32;4.00;;;;;;;;;;10411632;28;19923;-83
2023/04/20 07:53:15;;;;;;;;;;;;;;;;;;10412403;28;20045;-82
2023/04/20 07:58:18;;;;;;;4.75;3.35;;;;;;;;;;10402334;28;19977;-83
2023/04/20 08:03:26;;;;;;;5.78;3.80;;;;;;;;;;10408168;28;20034;-83
2023/04/20 08:08:27;;;;;;;6.15;4.13;;;;;;;;;;10408222;28;20026;-83
2023/04/20 08:13:29;;;;;;;4.72;3.30;;;;;;;;;;10404608;28;20030;-84
2023/04/20 08:18:30;;;;;;;8.95;4.47;;;;;;;;;;10394970;28;20080;-85
2023/04/20 08:23:31;;;;;;;6.00;4.55;;;;;;;;;;10392911;28;20069;-85
2023/04/20 08:28:32;;;;;;;;;;;;;;;;;;10391942;28;20026;-84
2023/04/20 08:33:33;;;;;;;9.48;5.18;;;;;;;;;;10389287;28;19954;-83
2023/04/20 08:38:35;;;;;;;6.65;3.35;;;;;;;;;;10393619;28;20030;-86
2023/04/20 08:43:36;;;;;;;12.68;4.10;;;;;;;;;;10388512;28;20030;-82
2023/04/20 08:48:37;;;;;;;;;;;;;;;;;;10391494;28;20034;-85
2023/04/20 08:53:38;;;;;;;6.68;4.97;;;;;;;;;;10394262;28;19906;-84
2023/04/20 09:04:22;;;;;;;7.07;3.92;;;;;;;;;;10389766;28;19917;-85
2023/04/20 09:09:33;;;;;;;6.32;4.55;;;;;;;;;;10385960;28;20098;-85
2023/04/20 09:14:44;;;;;;;9.25;6.28;;;;;;;;;;10388167;28;20121;-85
2023/04/20 09:19:54;;;;;;;9.93;5.30;;;;;;;;;;10386359;28;20061;-84
2023/04/20 09:24:56;;;;;;;6.00;4.63;;;;;;;;;;10390323;28;20088;-85
2023/04/20 09:29:58;;;;;;;7.88;5.07;;;;;;;;;;10394718;28;20033;-83
2023/04/20 09:34:59;;;;;;;5.88;4.32;;;;;;;;;;10391638;28;20025;-82
2023/04/20 09:40:00;;;;;;;;;;;;;;;;;;10392994;28;20064;-83
2023/04/20 09:45:01;;;;;;;5.55;3.10;;;;;;;;;;10391359;28;19957;-82
2023/04/20 09:50:03;;;;;;;3.72;2.78;;;;;;;;;;10393899;28;20072;-82
2023/04/20 09:55:06;;;;;;;8.25;5.90;;;;;;;;;;10393365;28;20053;-82
2023/04/20 10:00:11;;;;;;;5.28;3.20;;;;;;;;;;10396948;28;20026;-83
2023/04/20 10:05:12;;;;;;;3.97;3.50;;;;;;;;;;10399835;28;20010;-82
2023/04/20 10:10:14;;;;;;;7.13;4.20;;;;;;;;;;10412157;28;20036;-83
2023/04/20 10:15:16;;;;;;;4.30;3.65;;;;;;;;;;10406347;28;20034;-82
2023/04/20 10:20:18;;;;;;;4.60;3.88;;;;;;;;;;10389907;28;20034;-82
2023/04/20 10:25:20;;;;;;;8.55;5.60;;;;;;;;;;10388911;28;20060;-83
2023/04/20 10:30:22;;;;;;;6.05;5.10;;;;;;;;;;10387325;28;20060;-83
2023/04/20 10:35:23;;;;;;;6.05;5.45;;;;;;;;;;10396342;28;20025;-83
2023/04/20 10:40:25;;;;;;;;;;;;;;;;;;10397852;28;20052;-83
2023/04/20 10:45:37;;;;;;;5.18;4.45;;;;;;;;;;10396440;28;19905;-82
2023/04/20 10:50:38;;;;;;;5.55;5.05;;;;;;;;;;10395572;28;20041;-82
2023/04/20 10:55:40;;;;;;;;;;;;;;;;;;10397372;28;20116;-82
2023/04/20 11:00:41;;;;;;;4.90;3.67;;;;;;;;;;10398703;28;19909;-82
2023/04/20 11:05:42;;;;;;;;;;;;;;;;;;10398494;28;20033;-82
2023/04/20 11:10:43;;;;;;;6.00;5.03;;;;;;;;;;10397294;28;19913;-81
2023/04/20 11:15:44;;;;;;;3.30;2.97;;;;;;;;;;10396765;28;20125;-81
2023/04/20 11:20:55;;;;;;;6.13;4.10;;;;;;;;;;10396466;28;20501;-81
2023/04/20 11:25:56;;;;;;;5.07;4.13;;;;;;;;;;10392377;28;20048;-81
2023/04/20 11:31:07;;;;;;;3.95;3.40;;;;;;;;;;10396712;28;20040;-84
2023/04/20 11:36:17;;;;;;;4.13;3.70;;;;;;;;;;10400362;28;20026;-84
2023/04/20 11:41:19;;;;;;;3.88;2.90;;;;;;;;;;10401593;28;20034;-83
2023/04/20 11:46:20;;;;;;;;;;;;;;;;;;10400501;28;20030;-84
2023/04/20 11:51:21;;;;;;;4.13;3.67;;;;;;;;;;10405527;28;19906;-83
2023/04/20 11:56:22;;;;;;;;;;;;;;;;;;10421464;28;20038;-83
2023/04/20 12:01:23;;;;;;;4.97;4.45;;;;;;;;;;10402125;28;19917;-83
2023/04/20 12:06:25;;;;;;;;;;;;;;;;;;10453919;22;20049;-82
2023/04/20 12:11:27;;;;;;;4.30;3.53;;;;;;;;;;10435821;28;19911;-83
2023/04/20 12:16:27;;;;;;;;;;;;;;;;;;10433568;28;20160;-83
2023/04/20 12:21:28;;;;;;;3.95;3.50;;;;;;;;;;10428859;28;19916;-82
2023/04/20 12:26:30;;;;;;;;;;;;;;;;;;10430918;28;20097;-83
2023/04/20 12:31:32;;;;;;;5.10;4.60;;;;;;;;;;10434458;28;20354;-83
2023/04/20 12:36:33;;;;;;;;;;;;;;;;;;10430372;28;20049;-83
2023/04/20 12:41:35;;;;;;;7.22;4.47;;;;;;;;;;10429290;28;19971;-82
2023/04/20 12:46:36;;;;;;;5.38;4.88;;;;;;;;;;10427850;28;20022;-84
2023/04/20 12:51:36;;;;;;;;;;;;;;;;;;10429652;28;20025;-83
2023/04/20 12:56:38;;;;;;;5.22;4.72;;;;;;;;;;10428014;28;19905;-83
2023/04/20 13:01:39;;;;;;;7.85;5.32;;;;;;;;;;10439742;28;20026;-83
2023/04/20 13:07:20;;;;;;;6.63;5.78;;;;;;;;;;10442296;28;20040;-84
2023/04/20 13:12:21;;;;;;;5.07;4.22;;;;;;;;;;10412830;28;20041;-83
2023/04/20 13:17:22;;;;;;;;;;;;;;;;;;10427542;28;20160;-82
2023/04/20 13:22:23;;;;;;;;;;;;;;;;;;10427078;28;19979;-82
2023/04/20 13:27:24;;;;;;;7.68;6.88;;;;;;;;;;10425197;28;19905;-83
2023/04/20 13:32:25;;;;;;;;;;;;;;;;;;10426066;28;20116;-84
2023/04/20 13:37:27;;;;;;;6.03;5.43;;;;;;;;;;10430023;28;20334;-83
2023/04/20 13:42:28;;;;;;;8.30;6.82;;;;;;;;;;10429137;28;20105;-83
2023/04/20 13:47:29;;;;;;;;;;;;;;;;;;10432262;28;20120;-82
2023/04/20 13:52:30;;;;;;;6.35;5.68;;;;;;;;;;10439368;28;19958;-82
2023/04/20 13:57:31;;;;;;;6.38;5.78;;;;;;;;;;10431788;28;20056;-81
2023/04/20 14:02:32;;;;;;;8.90;8.00;;;;;;;;;;10426243;28;20113;-82
2023/04/20 14:07:34;;;;;;;7.55;5.97;;;;;;;;;;10431793;28;20479;-82
2023/04/20 14:12:35;;;;;;;5.95;5.35;;;;;;;;;;10445520;28;20064;-82
2023/04/20 14:17:37;;;;;;;8.30;7.35;;;;;;;;;;10453766;28;20021;-80
2023/04/20 14:22:38;;;;;;;6.00;5.10;;;;;;;;;;10443844;28;20025;-86
2023/04/20 14:27:39;;;;;;;7.68;6.05;;;;;;;;;;10439890;28;20026;-85
2023/04/20 14:32:40;;;;;;;8.52;7.10;;;;;;;;;;10433840;28;20175;-78
2023/04/20 14:37:41;;;;;;;;;;;;;;;;;;10434322;28;20029;-80
2023/04/20 14:42:42;;;;;;;9.88;8.20;;;;;;;;;;10435443;28;19905;-79
2023/04/20 14:47:43;;;;;;;;;;;;;;;;;;10435995;28;20033;-80
2023/04/20 14:52:44;;;;;;;6.57;5.57;;;;;;;;;;10435746;28;20353;-84
2023/04/20 14:57:45;;;;;;;7.00;4.65;;;;;;;;;;10438445;28;20076;-83
2023/04/20 15:02:46;;;;;;;7.05;6.10;;;;;;;;;;10441655;28;20038;-82
2023/04/20 15:07:49;;;;;;;5.63;4.90;;;;;;;;;;10442100;28;20022;-82
2023/04/20 15:12:51;;;;;;;8.32;5.70;;;;;;;;;;10444199;28;20033;-82
2023/04/20 15:17:52;;;;;;;6.70;5.50;;;;;;;;;;10444635;28;20037;-81
2023/04/20 15:22:53;;;;;;;6.47;5.20;;;;;;;;;;10435030;28;20480;-80
2023/04/20 15:27:54;;;;;;;5.22;4.72;;;;;;;;;;10430178;28;20065;-81
2023/04/20 15:32:55;;;;;;;7.57;6.13;;;;;;;;;;10431642;28;20101;-79
2023/04/20 15:37:56;;;;;;;;;;;;;;;;;;10438058;28;20230;-81
2023/04/20 15:42:58;;;;;;;5.10;4.47;;;;;;;;;;10432473;28;19916;-82
2023/04/20 15:47:59;;;;;;;9.02;7.93;;;;;;;;;;10431340;28;20029;-82
2023/04/20 15:53:07;;;;;;;4.53;4.10;;;;;;;;;;10432519;28;20328;-82
2023/04/20 15:58:07;;;;;;;6.32;3.88;;;;;;;;;;10432060;28;20059;-81
2023/04/20 16:03:09;;;;;;;4.10;3.70;;;;;;;;;;10431762;28;20124;-83
2023/04/20 16:08:11;;;;;;;5.18;4.68;;;;;;;;;;10431139;28;20045;-83
2023/04/20 16:13:12;;;;;;;4.35;3.72;;;;;;;;;;10430943;28;20026;-83
2023/04/20 16:18:13;;;;;;;8.15;7.32;;;;;;;;;;10430635;28;20053;-83
2023/04/20 16:23:15;;;;;;;3.92;3.53;;;;;;;;;;10432741;28;20021;-83
2023/04/20 16:28:16;;;;;;;3.17;2.47;;;;;;;;;;10430097;28;20025;-85
2023/04/20 16:33:17;;;;;;;4.47;3.20;;;;;;;;;;10433855;28;20029;-80
2023/04/20 16:38:19;;;;;;;4.57;3.85;;;;;;;;;;10430251;28;20022;-80
2023/04/20 16:43:20;;;;;;;5.32;4.82;;;;;;;;;;10426343;28;20037;-80
2023/04/20 16:48:21;;;;;;;6.45;4.78;;;;;;;;;;10427262;28;20064;-81
2023/04/20 16:53:23;;;;;;;5.55;5.05;;;;;;;;;;10426385;28;20048;-80
2023/04/20 16:58:25;;;;;;;5.53;4.47;;;;;;;;;;10428367;28;20026;-80
2023/04/20 17:03:26;;;;;;;4.72;4.20;;;;;;;;;;10426190;28;20041;-79
2023/04/20 17:08:27;;;;;;;;;;;;;;;;;;10431804;28;20073;-80
2023/04/20 17:13:28;;;;;;;3.88;3.42;;;;;;;;;;10434948;28;20075;-80
2023/04/20 17:18:29;;;;;;;;;;;;;;;;;;10452663;28;20041;-80
2023/04/20 17:23:31;;;;;;;;;;;;;;;;;;10443519;28;19905;-80
2023/04/20 17:28:32;;;;;;;4.60;4.15;;;;;;;;;;10442669;28;19905;-84
2023/04/20 17:33:33;;;;;;;5.50;3.88;;;;;;;;;;10442002;28;20080;-84
2023/04/20 17:38:35;;;;;;;4.47;3.63;;;;;;;;;;10436409;28;20376;-82
2023/04/20 17:43:39;;;;;;;3.10;2.70;;;;;;;;;;10439185;28;20044;-84
2023/04/20 17:48:40;;;;;;;5.30;4.80;;;;;;;;;;10441970;28;20025;-83
2023/04/20 17:53:41;;;;;;;;;;;;;;;;;;10443671;28;20029;-83
2023/04/20 17:58:42;;;;;;;4.82;3.95;;;;;;;;;;10443586;28;19909;-83
2023/04/20 18:03:43;;;;;;;3.50;2.85;;;;;;;;;;10441642;28;20041;-83
2023/04/20 18:08:44;;;;;;;4.10;3.25;;;;;;;;;;10444971;28;20034;-83
2023/04/20 18:13:45;;;;;;;3.70;3.33;;;;;;;;;;10444997;28;20030;-83
2023/04/20 18:18:46;;;;;;;4.38;3.97;;;;;;;;;;10445943;28;20056;-83
2023/04/20 18:23:47;;;;;;;3.20;2.90;;;;;;;;;;10440326;28;20025;-83
2023/04/20 18:28:48;;;;;;;3.80;3.20;;;;;;;;;;10440313;28;20057;-83
2023/04/20 18:33:49;;;;;;;3.42;3.13;;;;;;;;;;10439963;28;20037;-83
2023/04/20 18:38:50;;;;;;;3.38;3.05;;;;;;;;;;10438637;28;20029;-83
2023/04/20 18:43:55;;;;;;;2.22;2.03;;;;;;;;;;10436603;28;20029;-83
2023/04/20 18:48:57;;;;;;;4.13;2.90;;;;;;;;;;10436105;28;20026;-84
2023/04/20 18:53:58;;;;;;;3.10;2.80;;;;;;;;;;10437713;28;20476;-84
2023/04/20 18:59:00;;;;;;;4.32;3.38;;;;;;;;;;10445024;28;20108;-83
2023/04/20 19:04:01;;;;;;;4.55;3.40;;;;;;;;;;10448580;28;20156;-84
2023/04/20 19:09:02;;;;;;;3.80;3.40;;;;;;;;;;10449812;28;20092;-83
2023/04/20 19:14:03;;;;;;;6.93;6.32;;;;;;;;;;10444373;28;20403;-83
